Time,TemperatureF,DewpointF,PressureIn,WindDirection,WindDirectionDegrees,WindSpeedMPH,WindSpeedGustMPH,Humidity,HourlyPrecipIn,Conditions,Clouds,dailyrainin,SoftwareType,DateUTC
2013-07-06 00:02:00,63.0,60.0,29.88,NE,56,0.0,2.0,90,0.00,,,0.00,,2013-07-06 05:02:00,
2013-07-06 00:12:00,63.0,60.0,29.88,NE,55,0.0,0.0,91,0.00,,,0.00,,2013-07-06 05:12:00,
2013-07-06 00:33:00,62.0,60.0,29.89,NE,56,0.0,0.0,92,0.00,,,0.00,,2013-07-06 05:33:00,
2013-07-06 02:22:00,60.0,58.0,29.90,South,176,0.0,2.0,94,0.00,,,0.00,,2013-07-06 07:22:00,
2013-07-06 02:33:00,60.0,58.0,29.90,South,176,0.0,2.0,94,0.00,,,0.00,,2013-07-06 07:33:00,
2013-07-06 06:53:00,57.0,57.0,29.91,South,176,0.0,0.0,99,0.00,,,0.00,,2013-07-06 11:53:00,
2013-07-06 07:01:00,57.0,57.0,29.91,South,176,0.0,0.0,99,0.00,,,0.00,,2013-07-06 12:01:00,
2013-07-06 07:22:00,60.0,60.0,29.91,South,176,0.0,0.0,99,0.00,,,0.00,,2013-07-06 12:22:00,
2013-07-06 07:33:00,60.0,60.0,29.91,South,176,0.0,0.0,99,0.00,,,0.00,,2013-07-06 12:33:00,
2013-07-06 07:43:00,63.0,63.0,29.91,WNW,284,0.0,1.0,99,0.00,,,0.00,,2013-07-06 12:43:00,
2013-07-06 07:52:00,65.0,64.0,29.91,ENE,71,0.0,1.0,96,0.00,,,0.00,,2013-07-06 12:52:00,
2013-07-06 08:01:00,65.0,64.0,29.91,ENE,71,0.0,1.0,96,0.00,,,0.00,,2013-07-06 13:01:00,
2013-07-06 08:12:00,68.0,65.0,29.91,North,9,0.0,1.0,89,0.00,,,0.00,,2013-07-06 13:12:00,
2013-07-06 08:22:00,70.0,65.0,29.91,West,260,0.0,1.0,84,0.00,,,0.00,,2013-07-06 13:22:00,
2013-07-06 08:33:00,70.0,65.0,29.91,West,260,0.0,1.0,84,0.00,,,0.00,,2013-07-06 13:33:00,
2013-07-06 08:43:00,72.0,65.0,29.91,NE,51,0.0,4.0,80,0.00,,,0.00,,2013-07-06 13:43:00,
2013-07-06 08:52:00,74.0,66.0,29.90,NW,304,0.0,3.0,77,0.00,,,0.00,,2013-07-06 13:52:00,
2013-07-06 09:11:00,76.0,67.0,29.90,East,94,0.0,4.0,74,0.00,,,0.00,,2013-07-06 14:11:00,
2013-07-06 09:22:00,78.0,67.0,29.90,SE,145,1.0,3.0,68,0.00,,,0.00,,2013-07-06 14:22:00,
2013-07-06 09:34:00,78.0,67.0,29.90,SE,145,1.0,3.0,68,0.00,,,0.00,,2013-07-06 14:34:00,
2013-07-06 09:42:00,79.0,66.0,29.90,NE,49,0.0,3.0,65,0.00,,,0.00,,2013-07-06 14:42:00,
2013-07-06 09:53:00,80.0,66.0,29.89,South,174,0.0,4.0,63,0.00,,,0.00,,2013-07-06 14:53:00,
2013-07-06 10:02:00,80.0,66.0,29.89,South,174,0.0,4.0,63,0.00,,,0.00,,2013-07-06 15:02:00,
2013-07-06 10:12:00,81.0,68.0,29.89,SSE,163,1.0,4.0,64,0.00,,,0.00,,2013-07-06 15:12:00,
2013-07-06 10:22:00,82.0,67.0,29.89,East,83,1.0,4.0,60,0.00,,,0.00,,2013-07-06 15:22:00,
2013-07-06 10:33:00,82.0,67.0,29.89,East,83,1.0,4.0,60,0.00,,,0.00,,2013-07-06 15:33:00,
2013-07-06 10:43:00,82.0,66.0,29.89,West,259,0.0,4.0,59,0.00,,,0.00,,2013-07-06 15:43:00,
2013-07-06 11:07:00,83.0,65.0,29.89,WSW,255,2.0,5.0,55,0.00,,,0.00,,2013-07-06 16:07:00,
2013-07-06 11:15:00,83.0,66.0,29.89,NNW,336,1.0,6.0,56,0.00,,,0.00,,2013-07-06 16:15:00,
2013-07-06 11:43:00,85.0,66.0,29.89,NW,324,1.0,3.0,53,0.00,,,0.00,,2013-07-06 16:43:00,
2013-07-06 12:23:00,86.0,65.0,29.89,ENE,68,2.0,5.0,49,0.00,,,0.00,,2013-07-06 17:23:00,
2013-07-06 12:31:00,86.0,65.0,29.89,NE,39,0.0,7.0,50,0.00,,,0.00,,2013-07-06 17:31:00,
2013-07-06 12:52:00,86.0,66.0,29.88,West,263,0.0,5.0,51,0.00,,,0.00,,2013-07-06 17:52:00,
2013-07-06 13:00:00,87.0,65.0,29.88,NE,50,2.0,6.0,48,0.00,,,0.00,,2013-07-06 18:00:00,
2013-07-06 13:10:00,87.0,65.0,29.88,NE,50,2.0,6.0,48,0.00,,,0.00,,2013-07-06 18:10:00,
2013-07-06 13:33:00,88.0,67.0,29.88,WNW,293,0.0,6.0,50,0.00,,,0.00,,2013-07-06 18:33:00,
2013-07-06 13:43:00,88.0,67.0,29.88,WNW,293,0.0,6.0,50,0.00,,,0.00,,2013-07-06 18:43:00,
2013-07-06 14:00:00,88.0,62.0,29.87,SW,232,1.0,9.0,42,0.00,,,0.00,,2013-07-06 19:00:00,
2013-07-06 14:11:00,88.0,62.0,29.87,SW,232,1.0,9.0,42,0.00,,,0.00,,2013-07-06 19:11:00,
2013-07-06 14:22:00,88.0,63.0,29.87,North,349,2.0,8.0,44,0.00,,,0.00,,2013-07-06 19:22:00,
2013-07-06 14:29:00,88.0,63.0,29.87,WSW,256,2.0,6.0,44,0.00,,,0.00,,2013-07-06 19:29:00,
2013-07-06 14:43:00,88.0,63.0,29.87,WSW,256,2.0,6.0,44,0.00,,,0.00,,2013-07-06 19:43:00,
2013-07-06 14:53:00,88.0,65.0,29.86,West,276,2.0,7.0,46,0.00,,,0.00,,2013-07-06 19:53:00,
2013-07-06 15:22:00,89.0,65.0,29.86,NW,309,0.0,5.0,45,0.00,,,0.00,,2013-07-06 20:22:00,
2013-07-06 15:53:00,87.0,64.0,29.86,WNW,300,2.0,5.0,46,0.00,,,0.00,,2013-07-06 20:53:00,
2013-07-06 16:00:00,88.0,61.0,29.85,North,5,1.0,5.0,41,0.00,,,0.00,,2013-07-06 21:00:00,
2013-07-06 16:12:00,88.0,61.0,29.85,North,5,1.0,5.0,41,0.00,,,0.00,,2013-07-06 21:12:00,
2013-07-06 16:19:00,88.0,63.0,29.86,WNW,288,1.0,5.0,44,0.00,,,0.00,,2013-07-06 21:19:00,
2013-07-06 16:32:00,88.0,63.0,29.85,West,281,1.0,5.0,44,0.00,,,0.00,,2013-07-06 21:32:00,
2013-07-06 16:43:00,88.0,63.0,29.85,West,281,1.0,5.0,44,0.00,,,0.00,,2013-07-06 21:43:00,
2013-07-06 16:53:00,88.0,61.0,29.85,ENE,71,2.0,7.0,40,0.00,,,0.00,,2013-07-06 21:53:00,
2013-07-06 17:00:00,88.0,61.0,29.85,East,86,0.0,6.0,40,0.00,,,0.00,,2013-07-06 22:00:00,
2013-07-06 17:13:00,88.0,61.0,29.85,East,86,0.0,6.0,40,0.00,,,0.00,,2013-07-06 22:13:00,
2013-07-06 17:23:00,88.0,61.0,29.85,SSW,212,1.0,6.0,40,0.00,,,0.00,,2013-07-06 22:23:00,
2013-07-06 17:31:00,88.0,63.0,29.85,NW,304,0.0,6.0,44,0.00,,,0.00,,2013-07-06 22:31:00,
2013-07-06 17:43:00,88.0,63.0,29.85,NW,304,0.0,6.0,44,0.00,,,0.00,,2013-07-06 22:43:00,
2013-07-06 18:09:00,87.0,62.0,29.83,South,172,0.0,3.0,44,0.00,,,0.00,,2013-07-06 23:09:00,
2013-07-06 18:22:00,85.0,63.0,29.83,South,176,0.0,2.0,48,0.00,,,0.00,,2013-07-06 23:22:00,
2013-07-06 18:32:00,84.0,63.0,29.83,NE,43,0.0,5.0,49,0.00,,,0.00,,2013-07-06 23:32:00,
2013-07-06 18:44:00,84.0,63.0,29.83,NE,43,0.0,5.0,49,0.00,,,0.00,,2013-07-06 23:44:00,
2013-07-06 19:09:00,80.0,67.0,29.84,West,276,0.0,0.0,65,0.00,,,0.00,,2013-07-07 00:09:00,
2013-07-06 19:23:00,81.0,66.0,29.83,ENE,62,0.0,2.0,61,0.00,,,0.00,,2013-07-07 00:23:00,
2013-07-06 19:58:00,78.0,65.0,29.84,East,101,0.0,1.0,65,0.00,,,0.00,,2013-07-07 00:58:00,
2013-07-06 20:22:00,78.0,65.0,29.84,East,101,0.0,1.0,65,0.00,,,0.00,,2013-07-07 01:22:00,
2013-07-06 20:32:00,78.0,65.0,29.84,East,101,0.0,1.0,65,0.00,,,0.00,,2013-07-07 01:32:00,
2013-07-06 20:42:00,78.0,65.0,29.84,East,101,0.0,1.0,65,0.00,,,0.00,,2013-07-07 01:42:00,
2013-07-06 20:52:00,78.0,65.0,29.84,East,101,0.0,1.0,65,0.00,,,0.00,,2013-07-07 01:52:00,
2013-07-06 23:41:00,70.0,65.0,29.84,SSE,158,0.0,0.0,84,0.00,,,0.00,,2013-07-07 04:41:00,
2013-07-06 23:51:00,70.0,65.0,29.84,SSE,158,0.0,0.0,84,0.00,,,0.00,,2013-07-07 04:51:00,